Accueil
METAR-TAF:

METAR-TAF

Aéroports :

Aéroport de Londres-Gatwick

Londres-Gatwick, Angleterre

latitude: 51-09N, longitude: 000-11W, altitude: 62 m

Observation

Le bulletin a été fait il y a 26 minutes, à 11:50 UTC
Vent 3 kt de est/nord-est
Température 3°C
Humidité 100%
Pression 1017 hPa
Visibilité: 9000 m
Nuages fragmentés à une hauteur de 4800 ft

METAR: EGKK 191150Z 07003KT 9000 BKN048 03/03 Q1017

Heure: 12:16 (12:16 UTC)

Prévision

Le bulletin a été fait il y a 1 heure et 18 minutes, à 10:58 UTC
Prévision valable du 19 à 12 UTC au 20 à 18 UTC
Vent 5 kt de est/sud-est
Visibilité 10 km ou plus
Nuages fragmentés à une hauteur de 3000 ft
Probabilité 40% :
Temporairement
du 19 à 12 UTC au 20 à 09 UTC
Visibilité: 8000 m

TAF: EGKK 191058Z 1912/2018 11005KT 9999 BKN030 PROB40 TEMPO 1912/2009 8000

Observations et prévisions météorologiques de plus de 4000 aéroports (messages METAR et TAF).

Les stations disponibles sont représentées par des disques jaunes et rouges sur la carte.

Passer la souris dessus pour voir le nom de la station.

Cliquer dessus pour voir les observations et prévisions météorologiques.

Pour changer de carte: cliquez sur les boutons verts avec une croix noire pour zoomer, sur le bouton vert avec un tiret pour effectuer un zoom arrière, ou sur les flèches vertes pour les cartes adjacentes.


METAR-TAF: